sensor_id;sensor_type;location;lat;lon;timestamp;temperature;humidity
53752;DHT22;41095;53.090;6.692;2022-11-24T00:01:30;8.20;99.90
53752;DHT22;41095;53.090;6.692;2022-11-24T00:04:01;8.10;99.90
53752;DHT22;41095;53.090;6.692;2022-11-24T00:06:28;8.10;99.90
53752;DHT22;41095;53.090;6.692;2022-11-24T00:08:54;8.10;99.90
53752;DHT22;41095;53.090;6.692;2022-11-24T00:11:23;8.00;99.90
53752;DHT22;41095;53.090;6.692;2022-11-24T00:13:49;7.90;99.90
53752;DHT22;41095;53.090;6.692;2022-11-24T00:16:20;7.90;99.90
53752;DHT22;41095;53.090;6.692;2022-11-24T00:18:48;7.90;99.90
53752;DHT22;41095;53.090;6.692;2022-11-24T00:21:15;7.80;99.90
53752;DHT22;41095;53.090;6.692;2022-11-24T00:23:42;7.80;99.90
53752;DHT22;41095;53.090;6.692;2022-11-24T00:26:12;7.80;99.90
53752;DHT22;41095;53.090;6.692;2022-11-24T00:28:39;7.70;99.90
53752;DHT22;41095;53.090;6.692;2022-11-24T00:31:14;7.80;99.90
53752;DHT22;41095;53.090;6.692;2022-11-24T00:33:40;7.70;99.90
53752;DHT22;41095;53.090;6.692;2022-11-24T00:36:06;7.70;99.90
53752;DHT22;41095;53.090;6.692;2022-11-24T00:38:32;7.60;99.90
53752;DHT22;41095;53.090;6.692;2022-11-24T00:40:57;7.60;99.90
53752;DHT22;41095;53.090;6.692;2022-11-24T00:43:23;7.60;99.90
53752;DHT22;41095;53.090;6.692;2022-11-24T00:45:49;7.60;99.90
53752;DHT22;41095;53.090;6.692;2022-11-24T00:48:14;7.60;99.90
53752;DHT22;41095;53.090;6.692;2022-11-24T00:50:40;7.50;99.90
53752;DHT22;41095;53.090;6.692;2022-11-24T00:53:06;8.00;99.90
53752;DHT22;41095;53.090;6.692;2022-11-24T00:55:32;7.50;99.90
53752;DHT22;41095;53.090;6.692;2022-11-24T00:57:57;7.50;99.90
53752;DHT22;41095;53.090;6.692;2022-11-24T01:00:23;7.40;99.90
53752;DHT22;41095;53.090;6.692;2022-11-24T01:02:48;7.40;99.90
53752;DHT22;41095;53.090;6.692;2022-11-24T01:05:15;7.40;99.90
53752;DHT22;41095;53.090;6.692;2022-11-24T01:07:41;7.40;99.90
53752;DHT22;41095;53.090;6.692;2022-11-24T01:10:07;7.40;99.90
53752;DHT22;41095;53.090;6.692;2022-11-24T01:12:33;7.40;99.90
53752;DHT22;41095;53.090;6.692;2022-11-24T01:14:59;7.40;99.90
53752;DHT22;41095;53.090;6.692;2022-11-24T01:17:26;7.40;99.90
53752;DHT22;41095;53.090;6.692;2022-11-24T01:19:52;7.40;99.90
53752;DHT22;41095;53.090;6.692;2022-11-24T01:22:17;7.30;99.90
53752;DHT22;41095;53.090;6.692;2022-11-24T01:24:43;7.30;99.90
53752;DHT22;41095;53.090;6.692;2022-11-24T01:27:10;7.30;99.90
53752;DHT22;41095;53.090;6.692;2022-11-24T01:29:35;7.30;99.90
53752;DHT22;41095;53.090;6.692;2022-11-24T01:32:01;7.30;99.90
53752;DHT22;41095;53.090;6.692;2022-11-24T01:34:27;7.30;99.90
53752;DHT22;41095;53.090;6.692;2022-11-24T01:36:53;7.30;99.90
53752;DHT22;41095;53.090;6.692;2022-11-24T01:39:18;7.30;99.90
53752;DHT22;41095;53.090;6.692;2022-11-24T01:41:44;7.20;99.90
53752;DHT22;41095;53.090;6.692;2022-11-24T01:44:27;7.30;99.90
53752;DHT22;41095;53.090;6.692;2022-11-24T01:46:59;7.20;99.90
53752;DHT22;41095;53.090;6.692;2022-11-24T01:49:39;7.30;99.90
53752;DHT22;41095;53.090;6.692;2022-11-24T01:52:22;7.20;99.90
53752;DHT22;41095;53.090;6.692;2022-11-24T01:54:56;7.30;99.90
53752;DHT22;41095;53.090;6.692;2022-11-24T01:57:26;7.20;99.90
53752;DHT22;41095;53.090;6.692;2022-11-24T01:59:59;7.30;99.90
53752;DHT22;41095;53.090;6.692;2022-11-24T02:02:27;7.30;99.90
53752;DHT22;41095;53.090;6.692;2022-11-24T02:04:56;7.40;99.90
53752;DHT22;41095;53.090;6.692;2022-11-24T02:07:23;7.50;99.90
53752;DHT22;41095;53.090;6.692;2022-11-24T02:10:07;7.50;99.90
53752;DHT22;41095;53.090;6.692;2022-11-24T02:12:35;7.50;99.90
53752;DHT22;41095;53.090;6.692;2022-11-24T02:15:02;7.60;99.90
53752;DHT22;41095;53.090;6.692;2022-11-24T02:17:28;7.70;99.90
53752;DHT22;41095;53.090;6.692;2022-11-24T02:19:58;7.70;99.90
53752;DHT22;41095;53.090;6.692;2022-11-24T02:22:58;7.60;99.90
53752;DHT22;41095;53.090;6.692;2022-11-24T02:28:09;7.60;99.90
53752;DHT22;41095;53.090;6.692;2022-11-24T02:30:36;7.60;99.90
53752;DHT22;41095;53.090;6.692;2022-11-24T02:33:02;7.60;99.90
53752;DHT22;41095;53.090;6.692;2022-11-24T02:35:28;7.50;99.90
53752;DHT22;41095;53.090;6.692;2022-11-24T02:37:54;7.70;99.90
53752;DHT22;41095;53.090;6.692;2022-11-24T02:40:21;7.50;99.90
53752;DHT22;41095;53.090;6.692;2022-11-24T02:42:55;7.50;99.90
53752;DHT22;41095;53.090;6.692;2022-11-24T02:45:22;7.50;99.90
53752;DHT22;41095;53.090;6.692;2022-11-24T02:47:48;7.40;99.90
53752;DHT22;41095;53.090;6.692;2022-11-24T02:50:14;7.40;99.90
53752;DHT22;41095;53.090;6.692;2022-11-24T02:52:40;7.40;99.90
53752;DHT22;41095;53.090;6.692;2022-11-24T02:55:06;7.90;99.90
53752;DHT22;41095;53.090;6.692;2022-11-24T02:57:32;7.40;99.90
53752;DHT22;41095;53.090;6.692;2022-11-24T02:59:58;7.40;99.90
53752;DHT22;41095;53.090;6.692;2022-11-24T03:02:23;7.40;99.90
53752;DHT22;41095;53.090;6.692;2022-11-24T03:04:49;7.40;99.90
53752;DHT22;41095;53.090;6.692;2022-11-24T03:07:15;7.40;99.90
53752;DHT22;41095;53.090;6.692;2022-11-24T03:09:41;7.40;99.90
53752;DHT22;41095;53.090;6.692;2022-11-24T03:12:06;7.40;99.90
53752;DHT22;41095;53.090;6.692;2022-11-24T03:14:32;7.40;99.90
53752;DHT22;41095;53.090;6.692;2022-11-24T03:16:58;7.40;99.90
53752;DHT22;41095;53.090;6.692;2022-11-24T03:19:23;7.40;99.90
53752;DHT22;41095;53.090;6.692;2022-11-24T03:21:49;7.40;99.90
53752;DHT22;41095;53.090;6.692;2022-11-24T03:24:15;7.40;99.90
53752;DHT22;41095;53.090;6.692;2022-11-24T03:26:40;7.40;99.90
53752;DHT22;41095;53.090;6.692;2022-11-24T03:29:07;7.40;99.90
53752;DHT22;41095;53.090;6.692;2022-11-24T03:31:33;7.40;99.90
53752;DHT22;41095;53.090;6.692;2022-11-24T03:33:59;7.50;99.90
53752;DHT22;41095;53.090;6.692;2022-11-24T03:36:25;7.50;99.90
53752;DHT22;41095;53.090;6.692;2022-11-24T03:38:50;7.50;99.90
53752;DHT22;41095;53.090;6.692;2022-11-24T03:41:16;7.50;99.90
53752;DHT22;41095;53.090;6.692;2022-11-24T03:43:42;7.60;99.90
53752;DHT22;41095;53.090;6.692;2022-11-24T03:46:08;7.60;99.90
53752;DHT22;41095;53.090;6.692;2022-11-24T03:48:34;7.60;99.90
53752;DHT22;41095;53.090;6.692;2022-11-24T03:51:00;7.70;99.90
53752;DHT22;41095;53.090;6.692;2022-11-24T03:53:29;7.70;99.90
53752;DHT22;41095;53.090;6.692;2022-11-24T03:55:56;7.60;99.90
53752;DHT22;41095;53.090;6.692;2022-11-24T03:58:22;7.60;99.90
53752;DHT22;41095;53.090;6.692;2022-11-24T04:00:48;7.60;99.90
53752;DHT22;41095;53.090;6.692;2022-11-24T04:03:15;7.50;99.90
53752;DHT22;41095;53.090;6.692;2022-11-24T04:05:41;7.50;99.90
53752;DHT22;41095;53.090;6.692;2022-11-24T04:08:06;7.50;99.90
53752;DHT22;41095;53.090;6.692;2022-11-24T04:10:33;7.50;99.90
53752;DHT22;41095;53.090;6.692;2022-11-24T04:13:04;7.40;99.90
53752;DHT22;41095;53.090;6.692;2022-11-24T04:15:36;7.40;99.90
53752;DHT22;41095;53.090;6.692;2022-11-24T04:18:02;7.40;99.90
53752;DHT22;41095;53.090;6.692;2022-11-24T04:20:27;7.30;99.90
53752;DHT22;41095;53.090;6.692;2022-11-24T04:22:53;7.30;99.90
53752;DHT22;41095;53.090;6.692;2022-11-24T04:25:19;7.30;99.90
53752;DHT22;41095;53.090;6.692;2022-11-24T04:27:47;7.30;99.90
53752;DHT22;41095;53.090;6.692;2022-11-24T04:30:14;7.30;99.90
53752;DHT22;41095;53.090;6.692;2022-11-24T04:32:40;7.30;99.90
53752;DHT22;41095;53.090;6.692;2022-11-24T04:35:06;7.20;99.90
53752;DHT22;41095;53.090;6.692;2022-11-24T04:37:33;7.20;99.90
53752;DHT22;41095;53.090;6.692;2022-11-24T04:39:59;7.20;99.90
53752;DHT22;41095;53.090;6.692;2022-11-24T04:42:24;7.20;99.90
53752;DHT22;41095;53.090;6.692;2022-11-24T04:44:50;6.50;99.90
53752;DHT22;41095;53.090;6.692;2022-11-24T04:47:19;7.20;99.90
53752;DHT22;41095;53.090;6.692;2022-11-24T04:49:46;7.20;99.90
53752;DHT22;41095;53.090;6.692;2022-11-24T04:52:16;7.20;99.90
53752;DHT22;41095;53.090;6.692;2022-11-24T04:54:42;7.10;99.90
53752;DHT22;41095;53.090;6.692;2022-11-24T04:57:18;7.10;99.90
53752;DHT22;41095;53.090;6.692;2022-11-24T04:59:44;7.10;99.90
53752;DHT22;41095;53.090;6.692;2022-11-24T05:02:10;7.10;99.90
53752;DHT22;41095;53.090;6.692;2022-11-24T05:04:35;7.10;99.90
53752;DHT22;41095;53.090;6.692;2022-11-24T05:07:01;7.10;99.90
53752;DHT22;41095;53.090;6.692;2022-11-24T05:09:27;7.00;99.90
53752;DHT22;41095;53.090;6.692;2022-11-24T05:11:53;7.10;99.90
53752;DHT22;41095;53.090;6.692;2022-11-24T05:14:18;7.00;99.90
53752;DHT22;41095;53.090;6.692;2022-11-24T05:16:44;7.00;99.90
53752;DHT22;41095;53.090;6.692;2022-11-24T05:19:10;7.00;99.90
53752;DHT22;41095;53.090;6.692;2022-11-24T05:21:35;7.00;99.90
53752;DHT22;41095;53.090;6.692;2022-11-24T05:24:01;7.00;99.90
53752;DHT22;41095;53.090;6.692;2022-11-24T05:26:27;7.00;99.90
53752;DHT22;41095;53.090;6.692;2022-11-24T05:28:53;7.00;99.90
53752;DHT22;41095;53.090;6.692;2022-11-24T05:31:19;7.00;99.90
53752;DHT22;41095;53.090;6.692;2022-11-24T05:33:44;6.80;99.90
53752;DHT22;41095;53.090;6.692;2022-11-24T05:36:10;7.00;99.90
53752;DHT22;41095;53.090;6.692;2022-11-24T05:38:55;7.00;99.90
53752;DHT22;41095;53.090;6.692;2022-11-24T05:41:20;7.00;99.90
53752;DHT22;41095;53.090;6.692;2022-11-24T05:43:46;7.20;99.90
53752;DHT22;41095;53.090;6.692;2022-11-24T05:46:12;6.90;99.90
53752;DHT22;41095;53.090;6.692;2022-11-24T05:48:37;7.10;99.90
53752;DHT22;41095;53.090;6.692;2022-11-24T05:51:03;6.90;99.90
53752;DHT22;41095;53.090;6.692;2022-11-24T05:53:28;6.90;99.90
53752;DHT22;41095;53.090;6.692;2022-11-24T05:55:54;6.90;99.90
53752;DHT22;41095;53.090;6.692;2022-11-24T05:58:20;6.90;99.90
53752;DHT22;41095;53.090;6.692;2022-11-24T06:00:45;6.90;99.90
53752;DHT22;41095;53.090;6.692;2022-11-24T06:03:11;6.90;99.90
53752;DHT22;41095;53.090;6.692;2022-11-24T06:05:37;6.90;99.90
53752;DHT22;41095;53.090;6.692;2022-11-24T06:08:03;6.90;99.90
53752;DHT22;41095;53.090;6.692;2022-11-24T06:10:29;6.80;99.90
53752;DHT22;41095;53.090;6.692;2022-11-24T06:12:55;6.80;99.90
53752;DHT22;41095;53.090;6.692;2022-11-24T06:15:21;6.90;99.90
53752;DHT22;41095;53.090;6.692;2022-11-24T06:17:54;6.80;99.90
53752;DHT22;41095;53.090;6.692;2022-11-24T06:20:20;6.90;99.90
53752;DHT22;41095;53.090;6.692;2022-11-24T06:22:46;6.80;99.90
53752;DHT22;41095;53.090;6.692;2022-11-24T06:25:12;6.80;99.90
53752;DHT22;41095;53.090;6.692;2022-11-24T06:27:38;6.80;99.90
53752;DHT22;41095;53.090;6.692;2022-11-24T06:30:05;6.80;99.90
53752;DHT22;41095;53.090;6.692;2022-11-24T06:32:30;6.80;99.90
53752;DHT22;41095;53.090;6.692;2022-11-24T06:34:56;6.80;99.90
53752;DHT22;41095;53.090;6.692;2022-11-24T06:37:22;6.90;99.90
53752;DHT22;41095;53.090;6.692;2022-11-24T06:39:47;6.80;99.90
53752;DHT22;41095;53.090;6.692;2022-11-24T06:42:13;6.80;99.90
53752;DHT22;41095;53.090;6.692;2022-11-24T06:44:44;6.80;99.90
53752;DHT22;41095;53.090;6.692;2022-11-24T06:47:10;6.80;99.90
53752;DHT22;41095;53.090;6.692;2022-11-24T06:49:36;6.80;99.90
53752;DHT22;41095;53.090;6.692;2022-11-24T06:52:02;6.80;99.90
53752;DHT22;41095;53.090;6.692;2022-11-24T06:54:27;6.80;99.90
53752;DHT22;41095;53.090;6.692;2022-11-24T06:56:57;6.80;99.90
53752;DHT22;41095;53.090;6.692;2022-11-24T06:59:24;6.90;99.90
53752;DHT22;41095;53.090;6.692;2022-11-24T07:01:51;6.90;99.90
53752;DHT22;41095;53.090;6.692;2022-11-24T07:04:16;6.90;99.90
53752;DHT22;41095;53.090;6.692;2022-11-24T07:06:43;6.80;99.90
53752;DHT22;41095;53.090;6.692;2022-11-24T07:09:10;6.90;99.90
53752;DHT22;41095;53.090;6.692;2022-11-24T07:11:36;6.90;99.90
53752;DHT22;41095;53.090;6.692;2022-11-24T07:14:03;6.80;99.90
53752;DHT22;41095;53.090;6.692;2022-11-24T07:16:29;6.90;99.90
53752;DHT22;41095;53.090;6.692;2022-11-24T07:18:55;6.90;99.90
53752;DHT22;41095;53.090;6.692;2022-11-24T07:21:23;6.90;99.90
53752;DHT22;41095;53.090;6.692;2022-11-24T07:23:53;7.50;99.90
53752;DHT22;41095;53.090;6.692;2022-11-24T07:26:19;7.00;99.90
53752;DHT22;41095;53.090;6.692;2022-11-24T07:28:45;7.40;99.90
53752;DHT22;41095;53.090;6.692;2022-11-24T07:31:13;7.10;99.90
53752;DHT22;41095;53.090;6.692;2022-11-24T07:33:39;7.10;99.90
53752;DHT22;41095;53.090;6.692;2022-11-24T07:36:06;7.10;99.90
53752;DHT22;41095;53.090;6.692;2022-11-24T07:38:33;7.00;99.90
53752;DHT22;41095;53.090;6.692;2022-11-24T07:41:04;7.00;99.90
53752;DHT22;41095;53.090;6.692;2022-11-24T07:43:32;7.00;99.90
53752;DHT22;41095;53.090;6.692;2022-11-24T07:45:58;7.00;99.90
53752;DHT22;41095;53.090;6.692;2022-11-24T07:48:24;7.00;99.90
53752;DHT22;41095;53.090;6.692;2022-11-24T07:50:49;6.90;99.90
53752;DHT22;41095;53.090;6.692;2022-11-24T07:53:15;7.00;99.90
53752;DHT22;41095;53.090;6.692;2022-11-24T07:55:41;7.00;99.90
53752;DHT22;41095;53.090;6.692;2022-11-24T07:58:07;7.00;99.90
53752;DHT22;41095;53.090;6.692;2022-11-24T08:00:32;7.10;99.90
53752;DHT22;41095;53.090;6.692;2022-11-24T08:02:58;7.00;99.90
53752;DHT22;41095;53.090;6.692;2022-11-24T08:05:24;7.00;99.90
53752;DHT22;41095;53.090;6.692;2022-11-24T08:07:49;6.90;99.90
53752;DHT22;41095;53.090;6.692;2022-11-24T08:10:16;6.90;99.90
53752;DHT22;41095;53.090;6.692;2022-11-24T08:12:41;7.00;99.90
53752;DHT22;41095;53.090;6.692;2022-11-24T08:15:08;6.90;99.90
53752;DHT22;41095;53.090;6.692;2022-11-24T08:17:34;7.00;99.90
53752;DHT22;41095;53.090;6.692;2022-11-24T08:19:59;7.00;99.90
53752;DHT22;41095;53.090;6.692;2022-11-24T08:22:25;7.10;99.90
53752;DHT22;41095;53.090;6.692;2022-11-24T08:24:51;7.10;99.90
53752;DHT22;41095;53.090;6.692;2022-11-24T08:27:17;7.10;99.90
53752;DHT22;41095;53.090;6.692;2022-11-24T08:29:44;7.20;99.90
53752;DHT22;41095;53.090;6.692;2022-11-24T08:32:10;7.20;99.90
53752;DHT22;41095;53.090;6.692;2022-11-24T08:34:37;7.30;99.90
53752;DHT22;41095;53.090;6.692;2022-11-24T08:37:04;7.40;99.90
53752;DHT22;41095;53.090;6.692;2022-11-24T08:39:30;7.50;99.90
53752;DHT22;41095;53.090;6.692;2022-11-24T08:41:56;7.50;99.90
53752;DHT22;41095;53.090;6.692;2022-11-24T08:44:22;7.50;99.90
53752;DHT22;41095;53.090;6.692;2022-11-24T08:46:48;7.60;99.90
53752;DHT22;41095;53.090;6.692;2022-11-24T08:49:14;7.60;99.90
53752;DHT22;41095;53.090;6.692;2022-11-24T08:51:41;7.60;99.90
53752;DHT22;41095;53.090;6.692;2022-11-24T08:54:08;7.70;99.90
53752;DHT22;41095;53.090;6.692;2022-11-24T08:56:34;7.80;99.90
53752;DHT22;41095;53.090;6.692;2022-11-24T08:59:01;7.90;99.90
53752;DHT22;41095;53.090;6.692;2022-11-24T09:01:27;7.90;99.90
53752;DHT22;41095;53.090;6.692;2022-11-24T09:03:53;8.00;99.90
53752;DHT22;41095;53.090;6.692;2022-11-24T09:06:20;8.00;99.90
53752;DHT22;41095;53.090;6.692;2022-11-24T09:08:47;8.00;99.90
53752;DHT22;41095;53.090;6.692;2022-11-24T09:11:14;8.10;99.90
53752;DHT22;41095;53.090;6.692;2022-11-24T09:13:41;8.20;99.90
53752;DHT22;41095;53.090;6.692;2022-11-24T09:16:12;8.20;99.90
53752;DHT22;41095;53.090;6.692;2022-11-24T09:18:38;8.30;99.90
53752;DHT22;41095;53.090;6.692;2022-11-24T09:21:15;8.30;99.90
53752;DHT22;41095;53.090;6.692;2022-11-24T09:23:42;8.40;99.90
53752;DHT22;41095;53.090;6.692;2022-11-24T09:26:28;8.40;99.90
53752;DHT22;41095;53.090;6.692;2022-11-24T09:28:55;8.50;99.90
53752;DHT22;41095;53.090;6.692;2022-11-24T09:31:24;8.80;99.90
53752;DHT22;41095;53.090;6.692;2022-11-24T09:33:50;8.60;99.90
53752;DHT22;41095;53.090;6.692;2022-11-24T09:36:17;8.70;99.90
53752;DHT22;41095;53.090;6.692;2022-11-24T09:38:42;8.80;99.90
53752;DHT22;41095;53.090;6.692;2022-11-24T09:52:52;9.00;99.90
53752;DHT22;41095;53.090;6.692;2022-11-24T09:55:40;9.00;99.90
53752;DHT22;41095;53.090;6.692;2022-11-24T10:00:38;9.10;99.90
53752;DHT22;41095;53.090;6.692;2022-11-24T10:03:13;9.10;99.90
53752;DHT22;41095;53.090;6.692;2022-11-24T10:05:40;9.10;99.90
53752;DHT22;41095;53.090;6.692;2022-11-24T10:10:59;9.20;99.90
53752;DHT22;41095;53.090;6.692;2022-11-24T10:23:58;9.40;99.90
53752;DHT22;41095;53.090;6.692;2022-11-24T10:26:37;9.40;99.90
53752;DHT22;41095;53.090;6.692;2022-11-24T10:29:20;9.40;99.90
53752;DHT22;41095;53.090;6.692;2022-11-24T10:31:52;9.50;99.90
53752;DHT22;41095;53.090;6.692;2022-11-24T10:34:27;9.50;99.90
53752;DHT22;41095;53.090;6.692;2022-11-24T10:37:13;9.50;99.90
53752;DHT22;41095;53.090;6.692;2022-11-24T10:42:22;9.60;99.90
53752;DHT22;41095;53.090;6.692;2022-11-24T10:45:01;9.70;99.90
53752;DHT22;41095;53.090;6.692;2022-11-24T10:47:28;9.70;99.90
53752;DHT22;41095;53.090;6.692;2022-11-24T10:52:28;9.70;99.90
53752;DHT22;41095;53.090;6.692;2022-11-24T10:55:00;9.80;99.90
53752;DHT22;41095;53.090;6.692;2022-11-24T10:57:39;9.80;99.90
53752;DHT22;41095;53.090;6.692;2022-11-24T11:02:43;9.70;99.90
53752;DHT22;41095;53.090;6.692;2022-11-24T11:05:39;9.70;99.90
53752;DHT22;41095;53.090;6.692;2022-11-24T11:10:40;9.70;99.90
53752;DHT22;41095;53.090;6.692;2022-11-24T11:13:27;9.70;99.90
53752;DHT22;41095;53.090;6.692;2022-11-24T11:15:54;9.70;99.90
53752;DHT22;41095;53.090;6.692;2022-11-24T11:18:20;9.70;99.90
53752;DHT22;41095;53.090;6.692;2022-11-24T11:20:57;9.70;99.90
53752;DHT22;41095;53.090;6.692;2022-11-24T11:23:36;9.80;99.90
53752;DHT22;41095;53.090;6.692;2022-11-24T11:29:02;9.90;99.90
53752;DHT22;41095;53.090;6.692;2022-11-24T11:31:29;9.90;99.90
53752;DHT22;41095;53.090;6.692;2022-11-24T11:34:12;10.00;99.90
53752;DHT22;41095;53.090;6.692;2022-11-24T11:39:05;10.10;99.90
53752;DHT22;41095;53.090;6.692;2022-11-24T11:41:36;10.10;99.90
53752;DHT22;41095;53.090;6.692;2022-11-24T11:44:37;10.10;99.90
53752;DHT22;41095;53.090;6.692;2022-11-24T11:49:51;10.20;99.90
53752;DHT22;41095;53.090;6.692;2022-11-24T11:52:31;10.20;99.90
53752;DHT22;41095;53.090;6.692;2022-11-24T12:10:02;10.60;99.90
53752;DHT22;41095;53.090;6.692;2022-11-24T12:23:42;10.80;99.90
53752;DHT22;41095;53.090;6.692;2022-11-24T12:36:59;10.90;99.90
53752;DHT22;41095;53.090;6.692;2022-11-24T12:42:08;11.00;99.90
53752;DHT22;41095;53.090;6.692;2022-11-24T12:44:44;11.00;99.90
53752;DHT22;41095;53.090;6.692;2022-11-24T12:50:13;11.00;99.90
53752;DHT22;41095;53.090;6.692;2022-11-24T12:52:47;11.10;99.90
53752;DHT22;41095;53.090;6.692;2022-11-24T12:55:18;11.00;99.90
53752;DHT22;41095;53.090;6.692;2022-11-24T13:03:44;11.00;99.90
53752;DHT22;41095;53.090;6.692;2022-11-24T13:08:43;11.10;99.90
53752;DHT22;41095;53.090;6.692;2022-11-24T13:16:24;10.90;99.90
53752;DHT22;41095;53.090;6.692;2022-11-24T13:18:59;10.90;99.90
53752;DHT22;41095;53.090;6.692;2022-11-24T13:26:51;10.80;99.90
53752;DHT22;41095;53.090;6.692;2022-11-24T13:29:36;10.80;99.90
53752;DHT22;41095;53.090;6.692;2022-11-24T13:40:01;10.70;99.90
53752;DHT22;41095;53.090;6.692;2022-11-24T13:42:28;10.70;99.90
53752;DHT22;41095;53.090;6.692;2022-11-24T13:44:59;10.70;99.90
53752;DHT22;41095;53.090;6.692;2022-11-24T13:50:23;10.70;99.90
53752;DHT22;41095;53.090;6.692;2022-11-24T13:52:52;10.60;99.90
53752;DHT22;41095;53.090;6.692;2022-11-24T13:55:31;10.60;99.90
53752;DHT22;41095;53.090;6.692;2022-11-24T14:03:35;10.60;99.90
53752;DHT22;41095;53.090;6.692;2022-11-24T14:06:11;10.60;99.90
53752;DHT22;41095;53.090;6.692;2022-11-24T14:08:38;10.50;99.90
53752;DHT22;41095;53.090;6.692;2022-11-24T14:11:12;10.50;99.90
53752;DHT22;41095;53.090;6.692;2022-11-24T14:13:38;10.60;99.90
53752;DHT22;41095;53.090;6.692;2022-11-24T14:16:22;10.50;99.90
53752;DHT22;41095;53.090;6.692;2022-11-24T14:18:50;10.50;99.90
53752;DHT22;41095;53.090;6.692;2022-11-24T14:23:50;10.40;99.90
53752;DHT22;41095;53.090;6.692;2022-11-24T14:26:22;10.40;99.90
53752;DHT22;41095;53.090;6.692;2022-11-24T14:28:49;10.30;99.90
53752;DHT22;41095;53.090;6.692;2022-11-24T14:31:23;10.40;99.90
53752;DHT22;41095;53.090;6.692;2022-11-24T14:33:52;10.30;99.90
53752;DHT22;41095;53.090;6.692;2022-11-24T14:36:30;10.30;99.90
53752;DHT22;41095;53.090;6.692;2022-11-24T14:38:56;10.20;99.90
53752;DHT22;41095;53.090;6.692;2022-11-24T14:41:24;10.20;99.90
53752;DHT22;41095;53.090;6.692;2022-11-24T14:44:18;10.20;99.90
53752;DHT22;41095;53.090;6.692;2022-11-24T14:46:44;10.20;99.90
53752;DHT22;41095;53.090;6.692;2022-11-24T14:49:16;10.10;99.90
53752;DHT22;41095;53.090;6.692;2022-11-24T14:51:44;10.10;99.90
53752;DHT22;41095;53.090;6.692;2022-11-24T14:54:17;10.10;99.90
53752;DHT22;41095;53.090;6.692;2022-11-24T14:57:04;10.10;99.90
53752;DHT22;41095;53.090;6.692;2022-11-24T14:59:32;10.00;99.90
53752;DHT22;41095;53.090;6.692;2022-11-24T15:01:59;9.90;99.90
53752;DHT22;41095;53.090;6.692;2022-11-24T15:04:29;9.90;99.90
53752;DHT22;41095;53.090;6.692;2022-11-24T15:07:15;9.90;99.90
53752;DHT22;41095;53.090;6.692;2022-11-24T15:09:57;9.80;99.90
53752;DHT22;41095;53.090;6.692;2022-11-24T15:12:57;9.80;99.90
53752;DHT22;41095;53.090;6.692;2022-11-24T15:15:32;9.70;99.90
53752;DHT22;41095;53.090;6.692;2022-11-24T15:18:01;9.70;99.90
53752;DHT22;41095;53.090;6.692;2022-11-24T15:23:25;9.60;99.90
53752;DHT22;41095;53.090;6.692;2022-11-24T15:25:56;9.50;99.90
53752;DHT22;41095;53.090;6.692;2022-11-24T15:28:23;9.50;99.90
53752;DHT22;41095;53.090;6.692;2022-11-24T15:30:52;10.00;99.90
53752;DHT22;41095;53.090;6.692;2022-11-24T15:33:19;9.40;99.90
53752;DHT22;41095;53.090;6.692;2022-11-24T15:35:45;9.40;99.90
53752;DHT22;41095;53.090;6.692;2022-11-24T15:38:11;9.30;99.90
53752;DHT22;41095;53.090;6.692;2022-11-24T15:40:38;9.30;99.90
53752;DHT22;41095;53.090;6.692;2022-11-24T15:45:42;9.30;99.90
53752;DHT22;41095;53.090;6.692;2022-11-24T15:48:08;9.20;99.90
53752;DHT22;41095;53.090;6.692;2022-11-24T15:50:35;9.20;99.90
53752;DHT22;41095;53.090;6.692;2022-11-24T15:53:02;9.10;99.90
53752;DHT22;41095;53.090;6.692;2022-11-24T15:55:28;9.40;99.90
53752;DHT22;41095;53.090;6.692;2022-11-24T15:57:53;9.10;99.90
53752;DHT22;41095;53.090;6.692;2022-11-24T16:00:21;9.00;99.90
53752;DHT22;41095;53.090;6.692;2022-11-24T16:02:48;9.00;99.90
53752;DHT22;41095;53.090;6.692;2022-11-24T16:05:15;9.00;99.90
53752;DHT22;41095;53.090;6.692;2022-11-24T16:07:41;9.00;99.90
53752;DHT22;41095;53.090;6.692;2022-11-24T16:10:27;8.90;99.90
53752;DHT22;41095;53.090;6.692;2022-11-24T16:12:53;8.90;99.90
53752;DHT22;41095;53.090;6.692;2022-11-24T16:15:19;8.80;99.90
53752;DHT22;41095;53.090;6.692;2022-11-24T16:17:45;8.80;99.90
53752;DHT22;41095;53.090;6.692;2022-11-24T16:20:11;8.80;99.90
53752;DHT22;41095;53.090;6.692;2022-11-24T16:22:37;8.80;99.90
53752;DHT22;41095;53.090;6.692;2022-11-24T16:25:03;8.70;99.90
53752;DHT22;41095;53.090;6.692;2022-11-24T16:27:29;8.70;99.90
53752;DHT22;41095;53.090;6.692;2022-11-24T16:29:55;8.70;99.90
53752;DHT22;41095;53.090;6.692;2022-11-24T16:32:21;8.70;99.90
53752;DHT22;41095;53.090;6.692;2022-11-24T16:34:47;8.70;99.90
53752;DHT22;41095;53.090;6.692;2022-11-24T16:37:12;8.60;99.90
53752;DHT22;41095;53.090;6.692;2022-11-24T16:39:38;8.60;99.90
53752;DHT22;41095;53.090;6.692;2022-11-24T16:42:04;8.60;99.90
53752;DHT22;41095;53.090;6.692;2022-11-24T16:44:29;8.60;99.90
53752;DHT22;41095;53.090;6.692;2022-11-24T16:46:55;8.60;99.90
53752;DHT22;41095;53.090;6.692;2022-11-24T16:49:21;8.50;99.90
53752;DHT22;41095;53.090;6.692;2022-11-24T16:51:47;8.50;99.90
53752;DHT22;41095;53.090;6.692;2022-11-24T16:54:13;8.50;99.90
53752;DHT22;41095;53.090;6.692;2022-11-24T16:56:38;8.50;99.90
53752;DHT22;41095;53.090;6.692;2022-11-24T16:59:04;8.50;99.90
53752;DHT22;41095;53.090;6.692;2022-11-24T17:01:30;8.50;99.90
53752;DHT22;41095;53.090;6.692;2022-11-24T17:03:57;8.40;99.90
53752;DHT22;41095;53.090;6.692;2022-11-24T17:06:23;8.40;99.90
53752;DHT22;41095;53.090;6.692;2022-11-24T17:08:49;8.40;99.90
53752;DHT22;41095;53.090;6.692;2022-11-24T17:11:20;8.40;99.90
53752;DHT22;41095;53.090;6.692;2022-11-24T17:13:47;8.30;99.90
53752;DHT22;41095;53.090;6.692;2022-11-24T17:16:19;8.40;99.90
53752;DHT22;41095;53.090;6.692;2022-11-24T17:18:45;8.30;99.90
53752;DHT22;41095;53.090;6.692;2022-11-24T17:21:14;8.30;99.90
53752;DHT22;41095;53.090;6.692;2022-11-24T17:23:40;8.30;99.90
53752;DHT22;41095;53.090;6.692;2022-11-24T17:26:09;8.20;99.90
53752;DHT22;41095;53.090;6.692;2022-11-24T17:28:36;8.20;99.90
53752;DHT22;41095;53.090;6.692;2022-11-24T17:31:10;8.20;99.90
53752;DHT22;41095;53.090;6.692;2022-11-24T17:33:38;8.20;99.90
53752;DHT22;41095;53.090;6.692;2022-11-24T17:36:04;8.20;99.90
53752;DHT22;41095;53.090;6.692;2022-11-24T17:38:30;8.20;99.90
53752;DHT22;41095;53.090;6.692;2022-11-24T17:40:56;8.10;99.90
53752;DHT22;41095;53.090;6.692;2022-11-24T17:43:22;8.30;99.90
53752;DHT22;41095;53.090;6.692;2022-11-24T17:45:56;8.10;99.90
53752;DHT22;41095;53.090;6.692;2022-11-24T17:48:22;8.10;99.90
53752;DHT22;41095;53.090;6.692;2022-11-24T17:50:57;8.10;99.90
53752;DHT22;41095;53.090;6.692;2022-11-24T17:53:23;8.00;99.90
53752;DHT22;41095;53.090;6.692;2022-11-24T17:55:52;8.00;99.90
53752;DHT22;41095;53.090;6.692;2022-11-24T17:58:17;8.00;99.90
53752;DHT22;41095;53.090;6.692;2022-11-24T18:00:43;8.00;99.90
53752;DHT22;41095;53.090;6.692;2022-11-24T18:03:09;8.00;99.90
53752;DHT22;41095;53.090;6.692;2022-11-24T18:05:35;8.00;99.90
53752;DHT22;41095;53.090;6.692;2022-11-24T18:08:02;8.00;99.90